sensor_id;sensor_type;location;lat;lon;timestamp;temperature;humidity
52113;DHT22;38109;49.488;31.988;2022-07-04T00:00:15;21.20;62.80
52113;DHT22;38109;49.488;31.988;2022-07-04T00:02:43;21.20;62.90
52113;DHT22;38109;49.488;31.988;2022-07-04T00:05:10;21.20;62.90
52113;DHT22;38109;49.488;31.988;2022-07-04T00:07:44;21.20;62.90
52113;DHT22;38109;49.488;31.988;2022-07-04T00:10:11;21.10;63.10
52113;DHT22;38109;49.488;31.988;2022-07-04T00:12:37;21.10;63.20
52113;DHT22;38109;49.488;31.988;2022-07-04T00:15:04;21.10;63.20
52113;DHT22;38109;49.488;31.988;2022-07-04T00:17:31;21.00;63.10
52113;DHT22;38109;49.488;31.988;2022-07-04T00:19:57;21.00;63.20
52113;DHT22;38109;49.488;31.988;2022-07-04T00:22:23;20.90;63.30
52113;DHT22;38109;49.488;31.988;2022-07-04T00:24:48;20.90;63.30
52113;DHT22;38109;49.488;31.988;2022-07-04T00:27:14;20.90;63.30
52113;DHT22;38109;49.488;31.988;2022-07-04T00:29:40;20.80;63.30
52113;DHT22;38109;49.488;31.988;2022-07-04T00:32:06;20.80;63.30
52113;DHT22;38109;49.488;31.988;2022-07-04T00:34:32;20.70;63.50
52113;DHT22;38109;49.488;31.988;2022-07-04T00:36:58;20.70;63.60
52113;DHT22;38109;49.488;31.988;2022-07-04T00:39:23;20.60;63.60
52113;DHT22;38109;49.488;31.988;2022-07-04T00:41:49;20.60;63.80
52113;DHT22;38109;49.488;31.988;2022-07-04T00:44:15;20.50;63.90
52113;DHT22;38109;49.488;31.988;2022-07-04T00:46:42;20.50;63.80
52113;DHT22;38109;49.488;31.988;2022-07-04T00:49:09;20.40;63.90
52113;DHT22;38109;49.488;31.988;2022-07-04T00:51:36;20.40;63.80
52113;DHT22;38109;49.488;31.988;2022-07-04T00:54:02;20.40;64.00
52113;DHT22;38109;49.488;31.988;2022-07-04T00:56:28;20.40;64.00
52113;DHT22;38109;49.488;31.988;2022-07-04T00:58:55;20.30;64.00
52113;DHT22;38109;49.488;31.988;2022-07-04T01:01:21;20.30;64.10
52113;DHT22;38109;49.488;31.988;2022-07-04T01:03:47;20.30;64.00
52113;DHT22;38109;49.488;31.988;2022-07-04T01:06:17;20.20;64.00
52113;DHT22;38109;49.488;31.988;2022-07-04T01:08:43;20.20;64.10
52113;DHT22;38109;49.488;31.988;2022-07-04T01:11:10;20.20;64.10
52113;DHT22;38109;49.488;31.988;2022-07-04T01:13:36;20.20;64.20
52113;DHT22;38109;49.488;31.988;2022-07-04T01:16:03;20.10;64.50
52113;DHT22;38109;49.488;31.988;2022-07-04T01:18:32;20.10;64.70
52113;DHT22;38109;49.488;31.988;2022-07-04T01:20:58;20.10;64.80
52113;DHT22;38109;49.488;31.988;2022-07-04T01:23:24;20.10;64.90
52113;DHT22;38109;49.488;31.988;2022-07-04T01:25:49;20.00;65.00
52113;DHT22;38109;49.488;31.988;2022-07-04T01:28:17;20.00;65.20
52113;DHT22;38109;49.488;31.988;2022-07-04T01:30:43;20.00;65.30
52113;DHT22;38109;49.488;31.988;2022-07-04T01:33:09;19.90;65.20
52113;DHT22;38109;49.488;31.988;2022-07-04T01:35:35;19.90;65.20
52113;DHT22;38109;49.488;31.988;2022-07-04T01:38:01;19.80;65.30
52113;DHT22;38109;49.488;31.988;2022-07-04T01:40:27;19.80;65.30
52113;DHT22;38109;49.488;31.988;2022-07-04T01:42:53;19.70;65.30
52113;DHT22;38109;49.488;31.988;2022-07-04T01:45:18;19.70;65.40
52113;DHT22;38109;49.488;31.988;2022-07-04T01:47:44;19.60;65.60
52113;DHT22;38109;49.488;31.988;2022-07-04T01:50:10;19.60;65.70
52113;DHT22;38109;49.488;31.988;2022-07-04T01:52:40;19.60;65.70
52113;DHT22;38109;49.488;31.988;2022-07-04T01:55:07;19.50;65.80
52113;DHT22;38109;49.488;31.988;2022-07-04T01:57:33;19.50;65.80
52113;DHT22;38109;49.488;31.988;2022-07-04T01:59:59;19.40;65.90
52113;DHT22;38109;49.488;31.988;2022-07-04T02:02:43;19.40;66.20
52113;DHT22;38109;49.488;31.988;2022-07-04T02:05:09;19.40;66.20
52113;DHT22;38109;49.488;31.988;2022-07-04T02:07:35;19.40;66.40
52113;DHT22;38109;49.488;31.988;2022-07-04T02:10:01;19.40;66.60
52113;DHT22;38109;49.488;31.988;2022-07-04T02:12:27;19.40;66.50
52113;DHT22;38109;49.488;31.988;2022-07-04T02:15:11;19.30;66.70
52113;DHT22;38109;49.488;31.988;2022-07-04T02:17:37;19.30;66.60
52113;DHT22;38109;49.488;31.988;2022-07-04T02:20:04;19.30;66.60
52113;DHT22;38109;49.488;31.988;2022-07-04T02:22:33;19.30;66.60
52113;DHT22;38109;49.488;31.988;2022-07-04T02:24:58;19.20;66.60
52113;DHT22;38109;49.488;31.988;2022-07-04T02:27:24;19.30;66.80
52113;DHT22;38109;49.488;31.988;2022-07-04T02:29:50;19.20;66.90
52113;DHT22;38109;49.488;31.988;2022-07-04T02:32:15;19.20;67.00
52113;DHT22;38109;49.488;31.988;2022-07-04T02:34:41;19.20;67.20
52113;DHT22;38109;49.488;31.988;2022-07-04T02:37:07;19.20;67.40
52113;DHT22;38109;49.488;31.988;2022-07-04T02:39:33;19.20;67.40
52113;DHT22;38109;49.488;31.988;2022-07-04T02:41:58;19.20;67.40
52113;DHT22;38109;49.488;31.988;2022-07-04T02:44:24;19.20;67.60
52113;DHT22;38109;49.488;31.988;2022-07-04T02:46:51;19.10;67.60
52113;DHT22;38109;49.488;31.988;2022-07-04T02:49:17;19.10;67.70
52113;DHT22;38109;49.488;31.988;2022-07-04T02:51:43;19.20;67.90
52113;DHT22;38109;49.488;31.988;2022-07-04T02:54:09;19.20;68.30
52113;DHT22;38109;49.488;31.988;2022-07-04T02:56:34;19.20;68.40
52113;DHT22;38109;49.488;31.988;2022-07-04T02:59:00;19.20;68.40
52113;DHT22;38109;49.488;31.988;2022-07-04T03:01:26;19.20;68.40
52113;DHT22;38109;49.488;31.988;2022-07-04T03:03:52;19.20;68.40
52113;DHT22;38109;49.488;31.988;2022-07-04T03:06:17;19.30;68.50
52113;DHT22;38109;49.488;31.988;2022-07-04T03:08:43;19.30;68.40
52113;DHT22;38109;49.488;31.988;2022-07-04T03:11:09;19.40;68.40
52113;DHT22;38109;49.488;31.988;2022-07-04T03:13:36;19.40;68.30
52113;DHT22;38109;49.488;31.988;2022-07-04T03:16:02;19.40;68.20
52113;DHT22;38109;49.488;31.988;2022-07-04T03:18:28;19.50;68.20
52113;DHT22;38109;49.488;31.988;2022-07-04T03:20:53;19.50;68.20
52113;DHT22;38109;49.488;31.988;2022-07-04T03:23:19;19.70;68.10
52113;DHT22;38109;49.488;31.988;2022-07-04T03:25:44;19.70;67.90
52113;DHT22;38109;49.488;31.988;2022-07-04T03:28:10;19.80;67.80
52113;DHT22;38109;49.488;31.988;2022-07-04T03:30:36;19.80;67.80
52113;DHT22;38109;49.488;31.988;2022-07-04T03:33:02;19.90;67.80
52113;DHT22;38109;49.488;31.988;2022-07-04T03:35:28;20.00;67.80
52113;DHT22;38109;49.488;31.988;2022-07-04T03:37:54;20.10;67.70
52113;DHT22;38109;49.488;31.988;2022-07-04T03:40:20;20.20;67.60
52113;DHT22;38109;49.488;31.988;2022-07-04T03:42:46;20.30;67.50
52113;DHT22;38109;49.488;31.988;2022-07-04T03:45:12;20.30;67.40
52113;DHT22;38109;49.488;31.988;2022-07-04T03:47:38;20.40;67.20
52113;DHT22;38109;49.488;31.988;2022-07-04T03:50:04;20.50;67.10
52113;DHT22;38109;49.488;31.988;2022-07-04T03:52:30;20.60;67.00
52113;DHT22;38109;49.488;31.988;2022-07-04T03:54:56;20.70;66.80
52113;DHT22;38109;49.488;31.988;2022-07-04T03:57:22;20.70;66.60
52113;DHT22;38109;49.488;31.988;2022-07-04T03:59:47;20.90;66.50
52113;DHT22;38109;49.488;31.988;2022-07-04T04:02:13;20.90;66.30
52113;DHT22;38109;49.488;31.988;2022-07-04T04:04:39;21.00;66.20
52113;DHT22;38109;49.488;31.988;2022-07-04T04:07:23;21.10;66.00
52113;DHT22;38109;49.488;31.988;2022-07-04T04:09:49;21.20;65.80
52113;DHT22;38109;49.488;31.988;2022-07-04T04:12:15;21.30;65.50
52113;DHT22;38109;49.488;31.988;2022-07-04T04:14:41;21.40;65.40
52113;DHT22;38109;49.488;31.988;2022-07-04T04:17:06;21.50;65.20
52113;DHT22;38109;49.488;31.988;2022-07-04T04:19:32;21.60;65.10
52113;DHT22;38109;49.488;31.988;2022-07-04T04:21:58;21.70;65.00
52113;DHT22;38109;49.488;31.988;2022-07-04T04:24:23;21.70;64.80
52113;DHT22;38109;49.488;31.988;2022-07-04T04:26:49;21.80;64.90
52113;DHT22;38109;49.488;31.988;2022-07-04T04:29:15;21.90;64.70
52113;DHT22;38109;49.488;31.988;2022-07-04T04:31:40;22.00;64.30
52113;DHT22;38109;49.488;31.988;2022-07-04T04:34:06;22.10;64.10
52113;DHT22;38109;49.488;31.988;2022-07-04T04:36:32;22.10;63.80
52113;DHT22;38109;49.488;31.988;2022-07-04T04:38:58;22.20;63.60
52113;DHT22;38109;49.488;31.988;2022-07-04T04:41:24;22.30;63.30
52113;DHT22;38109;49.488;31.988;2022-07-04T04:43:49;22.30;63.10
52113;DHT22;38109;49.488;31.988;2022-07-04T04:46:15;22.40;63.00
52113;DHT22;38109;49.488;31.988;2022-07-04T04:48:41;22.50;62.80
52113;DHT22;38109;49.488;31.988;2022-07-04T04:51:06;22.50;62.60
52113;DHT22;38109;49.488;31.988;2022-07-04T04:53:32;22.60;62.40
52113;DHT22;38109;49.488;31.988;2022-07-04T04:55:58;22.70;62.30
52113;DHT22;38109;49.488;31.988;2022-07-04T04:58:24;22.70;62.20
52113;DHT22;38109;49.488;31.988;2022-07-04T05:00:49;22.80;62.20
52113;DHT22;38109;49.488;31.988;2022-07-04T05:03:16;22.90;62.30
52113;DHT22;38109;49.488;31.988;2022-07-04T05:05:42;22.90;62.00
52113;DHT22;38109;49.488;31.988;2022-07-04T05:08:08;23.00;62.00
52113;DHT22;38109;49.488;31.988;2022-07-04T05:10:34;23.10;62.10
52113;DHT22;38109;49.488;31.988;2022-07-04T05:13:00;23.20;62.20
52113;DHT22;38109;49.488;31.988;2022-07-04T05:15:25;23.20;62.10
52113;DHT22;38109;49.488;31.988;2022-07-04T05:17:51;23.30;61.90
52113;DHT22;38109;49.488;31.988;2022-07-04T05:20:17;23.40;61.90
52113;DHT22;38109;49.488;31.988;2022-07-04T05:22:43;23.50;61.70
52113;DHT22;38109;49.488;31.988;2022-07-04T05:25:08;23.50;61.60
52113;DHT22;38109;49.488;31.988;2022-07-04T05:27:34;23.60;61.50
52113;DHT22;38109;49.488;31.988;2022-07-04T05:30:00;23.70;61.40
52113;DHT22;38109;49.488;31.988;2022-07-04T05:32:26;23.70;61.30
52113;DHT22;38109;49.488;31.988;2022-07-04T05:34:52;23.80;61.10
52113;DHT22;38109;49.488;31.988;2022-07-04T05:37:18;23.90;61.00
52113;DHT22;38109;49.488;31.988;2022-07-04T05:39:44;24.00;60.80
52113;DHT22;38109;49.488;31.988;2022-07-04T05:42:10;24.00;60.50
52113;DHT22;38109;49.488;31.988;2022-07-04T05:44:35;24.10;60.10
52113;DHT22;38109;49.488;31.988;2022-07-04T05:47:01;24.20;59.90
52113;DHT22;38109;49.488;31.988;2022-07-04T05:49:27;24.20;59.60
52113;DHT22;38109;49.488;31.988;2022-07-04T05:51:52;24.30;59.50
52113;DHT22;38109;49.488;31.988;2022-07-04T05:54:18;24.30;59.40
52113;DHT22;38109;49.488;31.988;2022-07-04T05:56:44;24.40;59.50
52113;DHT22;38109;49.488;31.988;2022-07-04T05:59:10;24.40;59.40
52113;DHT22;38109;49.488;31.988;2022-07-04T06:01:36;24.50;59.40
52113;DHT22;38109;49.488;31.988;2022-07-04T06:04:03;24.60;59.30
52113;DHT22;38109;49.488;31.988;2022-07-04T06:06:29;24.70;59.10
52113;DHT22;38109;49.488;31.988;2022-07-04T06:08:56;24.70;58.70
52113;DHT22;38109;49.488;31.988;2022-07-04T06:11:21;24.80;58.60
52113;DHT22;38109;49.488;31.988;2022-07-04T06:13:48;24.80;58.60
52113;DHT22;38109;49.488;31.988;2022-07-04T06:16:14;24.90;58.80
52113;DHT22;38109;49.488;31.988;2022-07-04T06:18:40;25.00;58.80
52113;DHT22;38109;49.488;31.988;2022-07-04T06:21:06;25.00;58.80
52113;DHT22;38109;49.488;31.988;2022-07-04T06:23:31;25.10;58.70
52113;DHT22;38109;49.488;31.988;2022-07-04T06:25:57;25.20;58.70
52113;DHT22;38109;49.488;31.988;2022-07-04T06:28:23;25.20;58.90
52113;DHT22;38109;49.488;31.988;2022-07-04T06:30:49;25.30;59.00
52113;DHT22;38109;49.488;31.988;2022-07-04T06:33:15;25.30;58.90
52113;DHT22;38109;49.488;31.988;2022-07-04T06:35:40;25.40;59.00
52113;DHT22;38109;49.488;31.988;2022-07-04T06:38:20;25.50;58.50
52113;DHT22;38109;49.488;31.988;2022-07-04T06:40:46;25.50;58.90
52113;DHT22;38109;49.488;31.988;2022-07-04T06:43:12;25.60;58.30
52113;DHT22;38109;49.488;31.988;2022-07-04T06:45:38;25.60;58.10
52113;DHT22;38109;49.488;31.988;2022-07-04T06:48:05;25.70;58.10
52113;DHT22;38109;49.488;31.988;2022-07-04T06:50:32;25.70;58.00
52113;DHT22;38109;49.488;31.988;2022-07-04T06:53:02;25.80;57.80
52113;DHT22;38109;49.488;31.988;2022-07-04T06:55:29;25.90;57.50
52113;DHT22;38109;49.488;31.988;2022-07-04T06:57:55;25.90;57.60
52113;DHT22;38109;49.488;31.988;2022-07-04T07:00:21;26.00;57.90
52113;DHT22;38109;49.488;31.988;2022-07-04T07:02:47;26.00;58.00
52113;DHT22;38109;49.488;31.988;2022-07-04T07:05:12;26.10;58.00
52113;DHT22;38109;49.488;31.988;2022-07-04T07:07:38;26.10;57.70
52113;DHT22;38109;49.488;31.988;2022-07-04T07:10:04;26.10;57.40
52113;DHT22;38109;49.488;31.988;2022-07-04T07:12:32;26.20;57.50
52113;DHT22;38109;49.488;31.988;2022-07-04T07:14:59;26.20;57.20
52113;DHT22;38109;49.488;31.988;2022-07-04T07:17:25;26.20;57.00
52113;DHT22;38109;49.488;31.988;2022-07-04T07:19:51;26.30;57.10
52113;DHT22;38109;49.488;31.988;2022-07-04T07:22:17;26.30;56.90
52113;DHT22;38109;49.488;31.988;2022-07-04T07:24:44;26.30;56.90
52113;DHT22;38109;49.488;31.988;2022-07-04T07:27:10;26.30;56.90
52113;DHT22;38109;49.488;31.988;2022-07-04T07:29:37;26.40;57.00
52113;DHT22;38109;49.488;31.988;2022-07-04T07:32:04;26.40;56.90
52113;DHT22;38109;49.488;31.988;2022-07-04T07:34:30;26.50;56.80
52113;DHT22;38109;49.488;31.988;2022-07-04T07:36:56;26.50;56.60
52113;DHT22;38109;49.488;31.988;2022-07-04T07:39:22;26.50;56.50
52113;DHT22;38109;49.488;31.988;2022-07-04T07:41:47;26.60;56.60
52113;DHT22;38109;49.488;31.988;2022-07-04T07:44:13;26.60;56.70
52113;DHT22;38109;49.488;31.988;2022-07-04T07:46:39;26.70;56.80
52113;DHT22;38109;49.488;31.988;2022-07-04T07:49:05;26.70;56.80
52113;DHT22;38109;49.488;31.988;2022-07-04T07:51:31;26.80;56.80
52113;DHT22;38109;49.488;31.988;2022-07-04T07:53:58;26.80;56.60
52113;DHT22;38109;49.488;31.988;2022-07-04T07:56:24;26.80;56.30
52113;DHT22;38109;49.488;31.988;2022-07-04T07:58:50;26.90;56.30
52113;DHT22;38109;49.488;31.988;2022-07-04T08:01:16;26.90;56.10
52113;DHT22;38109;49.488;31.988;2022-07-04T08:03:42;27.00;56.10
52113;DHT22;38109;49.488;31.988;2022-07-04T08:06:26;27.10;56.00
52113;DHT22;38109;49.488;31.988;2022-07-04T08:08:51;27.10;55.90
52113;DHT22;38109;49.488;31.988;2022-07-04T08:11:17;27.10;55.70
52113;DHT22;38109;49.488;31.988;2022-07-04T08:13:43;27.20;55.60
52113;DHT22;38109;49.488;31.988;2022-07-04T08:16:09;27.20;55.40
52113;DHT22;38109;49.488;31.988;2022-07-04T08:18:35;27.30;55.20
52113;DHT22;38109;49.488;31.988;2022-07-04T08:21:01;27.30;55.30
52113;DHT22;38109;49.488;31.988;2022-07-04T08:23:28;27.30;55.20
52113;DHT22;38109;49.488;31.988;2022-07-04T08:25:54;27.30;55.80
52113;DHT22;38109;49.488;31.988;2022-07-04T08:28:19;27.40;55.20
52113;DHT22;38109;49.488;31.988;2022-07-04T08:30:45;27.40;55.00
52113;DHT22;38109;49.488;31.988;2022-07-04T08:33:11;27.40;54.80
52113;DHT22;38109;49.488;31.988;2022-07-04T08:35:37;27.40;54.70
52113;DHT22;38109;49.488;31.988;2022-07-04T08:38:02;27.40;54.50
52113;DHT22;38109;49.488;31.988;2022-07-04T08:40:29;27.40;54.40
52113;DHT22;38109;49.488;31.988;2022-07-04T08:42:57;27.50;54.50
52113;DHT22;38109;49.488;31.988;2022-07-04T10:58:41;28.80;47.50
52113;DHT22;38109;49.488;31.988;2022-07-04T11:01:14;28.80;47.60
52113;DHT22;38109;49.488;31.988;2022-07-04T11:03:48;28.90;47.40
52113;DHT22;38109;49.488;31.988;2022-07-04T11:09:24;28.90;47.30
52113;DHT22;38109;49.488;31.988;2022-07-04T11:14:42;28.90;46.80
52113;DHT22;38109;49.488;31.988;2022-07-04T11:17:14;28.90;46.40
52113;DHT22;38109;49.488;31.988;2022-07-04T11:19:41;28.90;46.30
52113;DHT22;38109;49.488;31.988;2022-07-04T11:22:09;29.00;46.50
52113;DHT22;38109;49.488;31.988;2022-07-04T11:24:38;29.00;46.20
52113;DHT22;38109;49.488;31.988;2022-07-04T11:27:07;29.00;46.10
52113;DHT22;38109;49.488;31.988;2022-07-04T11:29:48;29.00;45.90
52113;DHT22;38109;49.488;31.988;2022-07-04T11:32:14;29.10;45.50
52113;DHT22;38109;49.488;31.988;2022-07-04T11:34:40;29.10;45.60
52113;DHT22;38109;49.488;31.988;2022-07-04T11:37:06;29.10;45.70
52113;DHT22;38109;49.488;31.988;2022-07-04T11:39:33;29.10;45.70
52113;DHT22;38109;49.488;31.988;2022-07-04T11:41:59;29.10;45.50
52113;DHT22;38109;49.488;31.988;2022-07-04T11:44:43;29.20;45.70
52113;DHT22;38109;49.488;31.988;2022-07-04T11:47:41;29.20;45.30
52113;DHT22;38109;49.488;31.988;2022-07-04T11:50:30;29.20;45.10
52113;DHT22;38109;49.488;31.988;2022-07-04T11:53:16;29.20;44.90
52113;DHT22;38109;49.488;31.988;2022-07-04T11:55:58;29.30;44.80
52113;DHT22;38109;49.488;31.988;2022-07-04T11:58:41;29.30;44.70
52113;DHT22;38109;49.488;31.988;2022-07-04T12:01:09;29.30;44.60
52113;DHT22;38109;49.488;31.988;2022-07-04T12:03:38;29.30;44.80
52113;DHT22;38109;49.488;31.988;2022-07-04T12:06:14;29.30;45.10
52113;DHT22;38109;49.488;31.988;2022-07-04T12:08:41;29.30;45.40
52113;DHT22;38109;49.488;31.988;2022-07-04T12:11:07;29.40;45.90
52113;DHT22;38109;49.488;31.988;2022-07-04T12:13:33;29.40;46.00
52113;DHT22;38109;49.488;31.988;2022-07-04T12:15:58;29.50;46.10
52113;DHT22;38109;49.488;31.988;2022-07-04T12:18:29;29.50;46.30
52113;DHT22;38109;49.488;31.988;2022-07-04T12:21:16;29.60;46.60
52113;DHT22;38109;49.488;31.988;2022-07-04T12:23:58;29.70;46.70
52113;DHT22;38109;49.488;31.988;2022-07-04T12:26:25;29.70;46.50
52113;DHT22;38109;49.488;31.988;2022-07-04T12:28:53;29.70;46.30
52113;DHT22;38109;49.488;31.988;2022-07-04T12:31:19;29.80;46.20
52113;DHT22;38109;49.488;31.988;2022-07-04T12:33:55;29.90;46.10
52113;DHT22;38109;49.488;31.988;2022-07-04T12:36:23;29.90;46.00
52113;DHT22;38109;49.488;31.988;2022-07-04T12:38:49;30.00;46.00
52113;DHT22;38109;49.488;31.988;2022-07-04T12:41:15;30.00;45.90
52113;DHT22;38109;49.488;31.988;2022-07-04T12:46:46;30.10;45.80
52113;DHT22;38109;49.488;31.988;2022-07-04T12:49:16;30.10;45.80
52113;DHT22;38109;49.488;31.988;2022-07-04T12:51:43;30.20;46.00
52113;DHT22;38109;49.488;31.988;2022-07-04T12:54:09;30.20;45.90
52113;DHT22;38109;49.488;31.988;2022-07-04T13:52:20;30.90;44.80
52113;DHT22;38109;49.488;31.988;2022-07-04T13:54:46;31.00;44.70
52113;DHT22;38109;49.488;31.988;2022-07-04T13:57:19;31.00;44.60
52113;DHT22;38109;49.488;31.988;2022-07-04T13:59:44;31.10;44.80
52113;DHT22;38109;49.488;31.988;2022-07-04T14:02:10;31.10;44.70
52113;DHT22;38109;49.488;31.988;2022-07-04T14:04:36;31.20;44.80
52113;DHT22;38109;49.488;31.988;2022-07-04T14:07:02;31.30;44.90
52113;DHT22;38109;49.488;31.988;2022-07-04T14:09:27;31.30;44.80
52113;DHT22;38109;49.488;31.988;2022-07-04T14:11:53;31.40;44.90
52113;DHT22;38109;49.488;31.988;2022-07-04T14:14:19;31.50;44.70
52113;DHT22;38109;49.488;31.988;2022-07-04T14:16:44;31.60;44.80
52113;DHT22;38109;49.488;31.988;2022-07-04T14:19:10;31.60;44.50
52113;DHT22;38109;49.488;31.988;2022-07-04T14:21:36;31.60;44.50
52113;DHT22;38109;49.488;31.988;2022-07-04T14:24:01;31.70;44.40
52113;DHT22;38109;49.488;31.988;2022-07-04T14:26:27;31.80;44.10
52113;DHT22;38109;49.488;31.988;2022-07-04T14:28:52;31.80;43.90
52113;DHT22;38109;49.488;31.988;2022-07-04T14:31:18;31.80;43.80
52113;DHT22;38109;49.488;31.988;2022-07-04T14:33:44;31.90;43.70
52113;DHT22;38109;49.488;31.988;2022-07-04T14:36:12;31.90;43.50
52113;DHT22;38109;49.488;31.988;2022-07-04T14:38:38;31.90;43.50
52113;DHT22;38109;49.488;31.988;2022-07-04T14:41:04;32.00;43.20
52113;DHT22;38109;49.488;31.988;2022-07-04T14:43:43;32.00;43.20
52113;DHT22;38109;49.488;31.988;2022-07-04T14:46:10;32.10;43.30
52113;DHT22;38109;49.488;31.988;2022-07-04T14:48:37;32.10;43.10
52113;DHT22;38109;49.488;31.988;2022-07-04T14:51:03;32.10;42.90
52113;DHT22;38109;49.488;31.988;2022-07-04T14:53:36;32.20;42.90
52113;DHT22;38109;49.488;31.988;2022-07-04T14:56:02;32.20;43.10
52113;DHT22;38109;49.488;31.988;2022-07-04T14:58:28;32.30;43.00
52113;DHT22;38109;49.488;31.988;2022-07-04T15:00:57;32.30;42.80
52113;DHT22;38109;49.488;31.988;2022-07-04T15:03:22;32.30;42.70
52113;DHT22;38109;49.488;31.988;2022-07-04T15:05:48;32.30;42.80
52113;DHT22;38109;49.488;31.988;2022-07-04T15:08:14;32.30;43.10
52113;DHT22;38109;49.488;31.988;2022-07-04T15:10:40;32.40;43.20
52113;DHT22;38109;49.488;31.988;2022-07-04T15:13:06;32.40;43.50
52113;DHT22;38109;49.488;31.988;2022-07-04T15:15:35;32.50;43.60
52113;DHT22;38109;49.488;31.988;2022-07-04T15:18:05;32.50;43.50
52113;DHT22;38109;49.488;31.988;2022-07-04T15:20:34;32.50;43.60
52113;DHT22;38109;49.488;31.988;2022-07-04T15:23:18;32.50;43.30
52113;DHT22;38109;49.488;31.988;2022-07-04T15:26:10;32.50;43.20
52113;DHT22;38109;49.488;31.988;2022-07-04T15:28:36;32.40;43.30
52113;DHT22;38109;49.488;31.988;2022-07-04T15:31:01;32.40;43.20
52113;DHT22;38109;49.488;31.988;2022-07-04T15:33:27;32.30;43.20
52113;DHT22;38109;49.488;31.988;2022-07-04T15:35:56;32.20;43.10
52113;DHT22;38109;49.488;31.988;2022-07-04T15:38:22;32.10;43.50
52113;DHT22;38109;49.488;31.988;2022-07-04T15:40:48;32.00;43.40
52113;DHT22;38109;49.488;31.988;2022-07-04T15:43:14;32.00;43.70
52113;DHT22;38109;49.488;31.988;2022-07-04T15:45:40;31.90;43.90
52113;DHT22;38109;49.488;31.988;2022-07-04T15:48:06;31.80;43.90
52113;DHT22;38109;49.488;31.988;2022-07-04T15:50:31;31.80;44.80
52113;DHT22;38109;49.488;31.988;2022-07-04T15:52:57;31.70;44.10
52113;DHT22;38109;49.488;31.988;2022-07-04T15:55:23;31.70;44.00
52113;DHT22;38109;49.488;31.988;2022-07-04T15:57:49;31.60;44.20
52113;DHT22;38109;49.488;31.988;2022-07-04T16:00:15;31.60;44.20
52113;DHT22;38109;49.488;31.988;2022-07-04T16:02:41;31.50;44.40
52113;DHT22;38109;49.488;31.988;2022-07-04T16:05:07;31.50;44.30
52113;DHT22;38109;49.488;31.988;2022-07-04T16:07:34;31.40;44.20
52113;DHT22;38109;49.488;31.988;2022-07-04T16:10:00;31.40;44.20
52113;DHT22;38109;49.488;31.988;2022-07-04T16:12:26;31.30;44.00
52113;DHT22;38109;49.488;31.988;2022-07-04T16:14:52;31.30;44.10
52113;DHT22;38109;49.488;31.988;2022-07-04T16:17:17;31.20;44.10
52113;DHT22;38109;49.488;31.988;2022-07-04T16:19:43;31.20;45.00
52113;DHT22;38109;49.488;31.988;2022-07-04T16:22:09;31.10;45.10
52113;DHT22;38109;49.488;31.988;2022-07-04T16:24:34;31.10;45.50
52113;DHT22;38109;49.488;31.988;2022-07-04T16:27:00;31.00;45.60
52113;DHT22;38109;49.488;31.988;2022-07-04T16:29:26;31.00;46.30
52113;DHT22;38109;49.488;31.988;2022-07-04T16:31:51;30.90;46.50
52113;DHT22;38109;49.488;31.988;2022-07-04T16:34:17;30.80;46.60
52113;DHT22;38109;49.488;31.988;2022-07-04T16:36:43;30.80;46.60
52113;DHT22;38109;49.488;31.988;2022-07-04T16:39:09;30.80;46.70
52113;DHT22;38109;49.488;31.988;2022-07-04T16:41:35;30.80;46.70
52113;DHT22;38109;49.488;31.988;2022-07-04T16:44:00;30.70;47.00
52113;DHT22;38109;49.488;31.988;2022-07-04T16:46:26;30.60;47.50
52113;DHT22;38109;49.488;31.988;2022-07-04T16:48:52;30.60;48.40
52113;DHT22;38109;49.488;31.988;2022-07-04T16:51:18;30.50;47.60
52113;DHT22;38109;49.488;31.988;2022-07-04T16:53:43;30.50;48.30
52113;DHT22;38109;49.488;31.988;2022-07-04T16:56:09;30.40;49.20
52113;DHT22;38109;49.488;31.988;2022-07-04T16:58:35;30.30;49.60
52113;DHT22;38109;49.488;31.988;2022-07-04T17:01:01;30.20;50.00
52113;DHT22;38109;49.488;31.988;2022-07-04T17:03:26;30.20;49.80
52113;DHT22;38109;49.488;31.988;2022-07-04T17:05:52;30.10;49.40
52113;DHT22;38109;49.488;31.988;2022-07-04T17:08:18;30.10;49.60
52113;DHT22;38109;49.488;31.988;2022-07-04T17:10:44;30.00;49.80
52113;DHT22;38109;49.488;31.988;2022-07-04T17:13:11;30.00;50.70
52113;DHT22;38109;49.488;31.988;2022-07-04T17:15:37;29.90;50.60
52113;DHT22;38109;49.488;31.988;2022-07-04T17:18:04;29.90;50.40
52113;DHT22;38109;49.488;31.988;2022-07-04T17:20:29;29.80;50.40
52113;DHT22;38109;49.488;31.988;2022-07-04T17:22:55;29.70;51.30
52113;DHT22;38109;49.488;31.988;2022-07-04T17:25:21;29.70;51.80
52113;DHT22;38109;49.488;31.988;2022-07-04T17:27:46;29.60;52.30
52113;DHT22;38109;49.488;31.988;2022-07-04T17:30:13;29.50;52.10
52113;DHT22;38109;49.488;31.988;2022-07-04T17:32:39;29.50;51.90
52113;DHT22;38109;49.488;31.988;2022-07-04T17:35:06;29.50;52.20
52113;DHT22;38109;49.488;31.988;2022-07-04T17:37:33;29.40;52.30
52113;DHT22;38109;49.488;31.988;2022-07-04T17:40:00;29.30;52.40
52113;DHT22;38109;49.488;31.988;2022-07-04T17:42:26;29.30;52.70
52113;DHT22;38109;49.488;31.988;2022-07-04T17:44:51;29.20;53.00
52113;DHT22;38109;49.488;31.988;2022-07-04T17:47:17;29.20;53.20
52113;DHT22;38109;49.488;31.988;2022-07-04T17:49:43;29.10;53.00
52113;DHT22;38109;49.488;31.988;2022-07-04T17:52:09;29.10;53.10
52113;DHT22;38109;49.488;31.988;2022-07-04T17:54:35;29.00;53.10
52113;DHT22;38109;49.488;31.988;2022-07-04T17:57:01;28.90;53.00
52113;DHT22;38109;49.488;31.988;2022-07-04T17:59:26;28.90;52.90
52113;DHT22;38109;49.488;31.988;2022-07-04T18:01:52;28.80;52.70
52113;DHT22;38109;49.488;31.988;2022-07-04T18:04:18;28.70;52.80
52113;DHT22;38109;49.488;31.988;2022-07-04T18:06:44;28.60;52.70
52113;DHT22;38109;49.488;31.988;2022-07-04T18:09:10;28.60;52.90
52113;DHT22;38109;49.488;31.988;2022-07-04T18:11:36;28.50;53.00
52113;DHT22;38109;49.488;31.988;2022-07-04T18:14:02;28.40;53.20
52113;DHT22;38109;49.488;31.988;2022-07-04T18:16:29;28.30;53.50
52113;DHT22;38109;49.488;31.988;2022-07-04T18:18:55;28.20;53.80
52113;DHT22;38109;49.488;31.988;2022-07-04T18:21:21;28.20;54.00
52113;DHT22;38109;49.488;31.988;2022-07-04T18:23:47;28.10;54.30
52113;DHT22;38109;49.488;31.988;2022-07-04T18:26:13;28.00;54.40
52113;DHT22;38109;49.488;31.988;2022-07-04T18:28:39;27.90;54.30
52113;DHT22;38109;49.488;31.988;2022-07-04T18:31:10;27.80;54.30